createdAt,value
2023-02-05T00:00:31.185Z,3.87
2023-02-05T00:02:59.468Z,4.73
2023-02-05T00:05:27.682Z,8.70
2023-02-05T00:07:55.887Z,11.10
2023-02-05T00:10:25.474Z,8.53
2023-02-05T00:12:53.672Z,7.93
2023-02-05T00:15:21.898Z,7.23
2023-02-05T00:17:50.122Z,6.60
2023-02-05T00:20:18.926Z,7.23
2023-02-05T00:22:47.165Z,6.00
2023-02-05T00:25:15.406Z,5.60
2023-02-05T00:27:44.999Z,4.37
2023-02-05T00:30:14.326Z,8.10
2023-02-05T00:32:42.591Z,4.93
2023-02-05T00:35:10.810Z,5.77
2023-02-05T00:37:39.448Z,6.63
2023-02-05T00:40:08.742Z,5.13
2023-02-05T00:42:37.003Z,4.80
2023-02-05T00:45:10.791Z,6.23
2023-02-05T00:47:39.387Z,5.13
2023-02-05T00:50:08.518Z,4.93
2023-02-05T00:52:37.044Z,4.03
2023-02-05T00:55:06.257Z,5.00
2023-02-05T00:57:34.493Z,4.07
2023-02-05T01:00:02.755Z,4.67
2023-02-05T01:02:56.456Z,5.30
2023-02-05T01:05:49.787Z,6.03
2023-02-05T01:08:17.946Z,4.77
2023-02-05T01:10:48.018Z,4.53
2023-02-05T01:13:18.181Z,4.43
2023-02-05T01:15:47.143Z,4.23
2023-02-05T01:18:16.738Z,5.40
2023-02-05T01:20:45.275Z,5.87
2023-02-05T01:23:13.503Z,4.63
2023-02-05T01:25:41.652Z,5.47
2023-02-05T01:28:10.201Z,5.97
2023-02-05T01:30:38.504Z,5.30
2023-02-05T01:33:06.825Z,4.33
2023-02-05T01:35:36.648Z,5.37
2023-02-05T01:38:04.905Z,3.13
2023-02-05T01:40:34.710Z,4.80
2023-02-05T01:43:02.884Z,3.97
2023-02-05T01:45:51.069Z,2.83
2023-02-05T01:48:24.003Z,3.40
2023-02-05T01:50:57.622Z,2.90
2023-02-05T01:53:29.853Z,3.60
2023-02-05T01:56:01.554Z,3.50
2023-02-05T01:58:34.809Z,6.73
2023-02-05T02:01:03.384Z,6.53
2023-02-05T02:03:33.104Z,3.83
2023-02-05T02:06:04.804Z,4.47
2023-02-05T02:08:33.770Z,3.93
2023-02-05T02:11:06.356Z,3.43
2023-02-05T02:13:36.701Z,3.80
2023-02-05T02:16:08.199Z,3.70
2023-02-05T02:18:38.757Z,2.53
2023-02-05T02:22:08.756Z,2.50
2023-02-05T02:25:28.115Z,4.73
2023-02-05T02:28:00.621Z,4.13
2023-02-05T02:30:36.524Z,4.37
2023-02-05T02:33:15.221Z,2.10
2023-02-05T02:35:53.705Z,2.43
2023-02-05T02:38:29.215Z,4.20
2023-02-05T02:41:05.934Z,3.60
2023-02-05T02:43:43.286Z,2.33
2023-02-05T02:46:22.813Z,2.20
2023-02-05T02:48:53.960Z,5.77
2023-02-05T02:51:24.698Z,2.30
2023-02-05T02:54:00.489Z,3.93
2023-02-05T02:56:55.403Z,3.03
2023-02-05T02:59:27.355Z,2.73
2023-02-05T03:02:00.193Z,2.70
2023-02-05T03:04:37.839Z,3.43
2023-02-05T03:07:15.516Z,3.47
2023-02-05T03:09:54.028Z,3.17
2023-02-05T03:12:30.474Z,4.77
2023-02-05T03:15:00.673Z,2.50
2023-02-05T03:17:30.524Z,2.87
2023-02-05T03:20:05.424Z,3.87
2023-02-05T03:22:33.908Z,2.20
2023-02-05T03:25:03.244Z,2.90
2023-02-05T03:27:34.078Z,4.60
2023-02-05T03:30:06.703Z,3.07
2023-02-05T03:32:49.678Z,2.77
2023-02-05T03:35:36.157Z,3.23
2023-02-05T03:38:32.780Z,2.90
2023-02-05T03:41:14.778Z,3.73
2023-02-05T03:43:51.026Z,3.50
2023-02-05T03:46:32.510Z,4.70
2023-02-05T03:49:15.099Z,2.60
2023-02-05T03:51:52.363Z,2.27
2023-02-05T03:54:35.257Z,3.27
2023-02-05T03:57:12.084Z,3.07
2023-02-05T03:59:42.266Z,2.57
2023-02-05T04:02:13.473Z,2.87
2023-02-05T04:04:45.033Z,3.60
2023-02-05T04:07:15.026Z,2.30
2023-02-05T04:09:43.665Z,4.70
2023-02-05T04:12:12.190Z,4.10
2023-02-05T04:14:41.426Z,2.83
2023-02-05T04:17:13.441Z,2.77
2023-02-05T04:19:42.781Z,2.40
2023-02-05T04:22:12.805Z,2.70
2023-02-05T04:24:44.459Z,3.30
2023-02-05T04:27:12.686Z,3.50
2023-02-05T04:29:41.674Z,5.00
2023-02-05T04:32:10.008Z,3.03
2023-02-05T04:34:39.605Z,5.00
2023-02-05T04:37:10.698Z,4.90
2023-02-05T04:39:38.969Z,7.80
2023-02-05T04:42:07.357Z,3.60
2023-02-05T04:44:35.501Z,3.20
2023-02-05T04:47:03.671Z,3.43
2023-02-05T04:49:33.945Z,2.93
2023-02-05T04:52:03.697Z,3.13
2023-02-05T04:54:31.890Z,3.63
2023-02-05T04:57:00.037Z,3.87
2023-02-05T04:59:30.005Z,4.23
2023-02-05T05:01:58.378Z,4.27
2023-02-05T05:07:21.228Z,4.27
2023-02-05T05:09:51.011Z,2.90
2023-02-05T05:12:20.505Z,3.73
2023-02-05T05:14:48.907Z,2.83
2023-02-05T05:17:17.141Z,2.60
2023-02-05T05:19:45.390Z,2.77
2023-02-05T05:22:13.602Z,2.23
2023-02-05T05:24:43.171Z,2.77
2023-02-05T05:27:11.334Z,3.90
2023-02-05T05:29:39.919Z,5.17
2023-02-05T05:32:08.139Z,3.50
2023-02-05T05:34:36.468Z,4.33
2023-02-05T05:37:04.633Z,4.53
2023-02-05T05:39:50.602Z,8.27
2023-02-05T05:42:37.873Z,4.47
2023-02-05T05:45:09.341Z,3.40
2023-02-05T05:47:37.910Z,4.73
2023-02-05T05:50:07.265Z,4.83
2023-02-05T05:52:35.529Z,4.40
2023-02-05T05:55:03.768Z,3.53
2023-02-05T05:57:33.255Z,3.70
2023-02-05T06:00:02.637Z,3.23
2023-02-05T06:02:44.185Z,3.43
2023-02-05T06:05:12.812Z,4.83
2023-02-05T06:07:41.006Z,4.83
2023-02-05T06:10:10.462Z,5.47
2023-02-05T06:12:40.222Z,4.67
2023-02-05T06:15:09.799Z,5.73
2023-02-05T06:17:38.084Z,4.30
2023-02-05T06:20:07.427Z,5.90
2023-02-05T06:22:36.231Z,5.23
2023-02-05T06:25:05.323Z,7.87
2023-02-05T06:27:33.957Z,5.80
2023-02-05T06:30:04.237Z,4.33
2023-02-05T06:32:32.480Z,4.77
2023-02-05T06:35:00.698Z,4.17
2023-02-05T06:37:46.206Z,4.60
2023-02-05T06:40:15.959Z,3.67
2023-02-05T06:42:44.239Z,3.90
2023-02-05T06:45:13.923Z,3.97
2023-02-05T06:47:42.120Z,5.13
2023-02-05T06:50:11.110Z,3.10
2023-02-05T06:52:39.611Z,3.10
2023-02-05T06:55:08.728Z,3.40
2023-02-05T06:57:36.990Z,4.20
2023-02-05T07:00:07.545Z,4.03
2023-02-05T07:02:37.218Z,3.70
2023-02-05T07:05:05.664Z,4.30
2023-02-05T07:07:34.383Z,3.40
2023-02-05T07:10:03.098Z,3.80
2023-02-05T07:12:31.523Z,4.63
2023-02-05T07:14:59.742Z,4.10
2023-02-05T07:17:27.949Z,4.63
2023-02-05T07:19:58.734Z,5.07
2023-02-05T07:22:27.339Z,4.87
2023-02-05T07:24:55.551Z,5.50
2023-02-05T07:27:23.838Z,6.00
2023-02-05T07:29:51.981Z,4.20
2023-02-05T07:32:20.131Z,4.67
2023-02-05T07:34:48.204Z,4.73
2023-02-05T07:37:17.584Z,5.60
2023-02-05T07:39:45.738Z,5.50
2023-02-05T07:42:13.960Z,7.17
2023-02-05T07:44:50.199Z,5.30
2023-02-05T07:47:18.376Z,5.70
2023-02-05T07:49:46.874Z,8.43
2023-02-05T07:52:15.058Z,7.00
2023-02-05T07:54:44.841Z,9.70
2023-02-05T07:57:13.107Z,10.83
2023-02-05T07:59:41.396Z,10.20
2023-02-05T08:02:10.825Z,10.27
2023-02-05T08:04:39.166Z,9.20
2023-02-05T08:07:07.927Z,8.60
2023-02-05T08:09:37.106Z,7.00
2023-02-05T08:12:07.786Z,8.40
2023-02-05T08:14:36.855Z,9.10
2023-02-05T08:17:07.110Z,9.13
2023-02-05T08:19:37.401Z,7.77
2023-02-05T08:22:05.690Z,9.43
2023-02-05T08:24:33.965Z,7.13
2023-02-05T08:27:02.215Z,7.20
2023-02-05T08:29:32.177Z,6.50
2023-02-05T08:32:00.891Z,5.57
2023-02-05T08:34:29.424Z,8.87
2023-02-05T08:36:57.836Z,6.73
2023-02-05T08:39:26.916Z,5.87
2023-02-05T08:41:57.020Z,6.80
2023-02-05T08:44:25.774Z,5.23
2023-02-05T08:46:55.323Z,6.90
2023-02-05T08:49:23.731Z,6.53
2023-02-05T08:51:52.197Z,6.67
2023-02-05T08:54:20.626Z,13.47
2023-02-05T08:56:51.931Z,13.37
2023-02-05T08:59:20.890Z,10.43
2023-02-05T09:02:14.248Z,9.03
2023-02-05T09:04:44.166Z,7.97
2023-02-05T09:07:20.414Z,7.67
2023-02-05T09:09:48.970Z,6.27
2023-02-05T09:12:17.512Z,6.27
2023-02-05T09:14:45.740Z,5.47
2023-02-05T09:17:14.455Z,5.93
2023-02-05T09:19:44.051Z,5.40
2023-02-05T09:22:12.344Z,5.73
2023-02-05T09:24:40.576Z,5.33
2023-02-05T09:27:08.821Z,6.70
2023-02-05T09:29:37.252Z,5.93
2023-02-05T09:32:06.152Z,5.17
2023-02-05T09:34:34.438Z,4.83
2023-02-05T09:37:04.076Z,7.20
2023-02-05T09:40:19.906Z,7.17
2023-02-05T09:42:32.885Z,8.80
2023-02-05T09:45:19.705Z,8.50
2023-02-05T09:47:59.036Z,11.57
2023-02-05T09:50:30.245Z,16.63
2023-02-05T09:53:05.780Z,11.57
2023-02-05T09:55:41.049Z,9.67
2023-02-05T09:58:15.009Z,7.17
2023-02-05T10:00:48.572Z,9.17
2023-02-05T10:03:27.076Z,5.93
2023-02-05T10:06:15.989Z,6.63
2023-02-05T10:08:57.456Z,6.60
2023-02-05T10:11:32.909Z,5.73
2023-02-05T10:14:13.594Z,7.57
2023-02-05T10:17:02.426Z,8.67
2023-02-05T10:19:53.132Z,7.60
2023-02-05T10:22:28.264Z,9.73
2023-02-05T10:25:19.801Z,7.57
2023-02-05T10:27:58.086Z,7.47
2023-02-05T10:30:32.282Z,6.57
2023-02-05T10:33:01.982Z,6.77
2023-02-05T10:35:44.318Z,7.17
2023-02-05T10:38:18.556Z,4.77
2023-02-05T10:40:48.179Z,6.87
2023-02-05T10:43:26.498Z,7.90
2023-02-05T10:45:56.526Z,5.50
2023-02-05T10:48:40.733Z,10.10
2023-02-05T10:51:14.075Z,5.80
2023-02-05T10:53:42.514Z,7.77
2023-02-05T10:56:18.764Z,7.47
2023-02-05T10:58:53.679Z,5.67
2023-02-05T11:01:29.760Z,7.40
2023-02-05T11:04:16.442Z,7.53
2023-02-05T11:06:48.731Z,6.50
2023-02-05T11:09:33.375Z,6.67
2023-02-05T11:12:17.613Z,8.93
2023-02-05T11:14:49.330Z,5.53
2023-02-05T11:17:24.509Z,6.13
2023-02-05T11:19:57.498Z,7.97
2023-02-05T11:22:30.162Z,7.70
2023-02-05T11:25:11.625Z,9.53
2023-02-05T11:27:41.245Z,6.70
2023-02-05T11:30:50.444Z,6.73
2023-02-05T11:33:27.934Z,10.90
2023-02-05T11:36:00.371Z,7.30
2023-02-05T11:38:37.453Z,9.87
2023-02-05T11:41:09.173Z,7.00
2023-02-05T11:43:46.553Z,6.03
2023-02-05T11:46:19.523Z,9.10
2023-02-05T11:48:55.056Z,10.80
2023-02-05T11:51:40.963Z,8.70
2023-02-05T11:54:22.512Z,13.00
2023-02-05T11:57:08.009Z,8.07
2023-02-05T11:59:38.166Z,11.63
2023-02-05T12:02:34.864Z,9.83
2023-02-05T12:05:13.696Z,8.33
2023-02-05T12:07:48.130Z,9.47
2023-02-05T12:10:28.841Z,8.60
2023-02-05T12:13:09.985Z,8.30
2023-02-05T12:15:46.457Z,7.93
2023-02-05T12:18:27.408Z,11.17
2023-02-05T12:21:13.592Z,8.43
2023-02-05T12:24:13.954Z,7.77
2023-02-05T12:26:46.113Z,9.43
2023-02-05T12:29:37.406Z,7.03
2023-02-05T12:32:17.880Z,10.27
2023-02-05T12:35:11.792Z,9.37
2023-02-05T12:37:49.296Z,9.47
2023-02-05T12:40:40.986Z,13.70
2023-02-05T12:43:26.212Z,11.40
2023-02-05T12:46:04.283Z,11.83
2023-02-05T12:48:53.544Z,14.40
2023-02-05T12:51:38.517Z,11.20
2023-02-05T12:54:26.478Z,10.50
2023-02-05T12:57:00.372Z,7.53
2023-02-05T12:59:40.285Z,11.97
2023-02-05T13:02:23.449Z,11.87
2023-02-05T13:05:12.398Z,10.83
2023-02-05T13:07:46.247Z,11.03
2023-02-05T13:10:20.092Z,13.60
2023-02-05T13:12:53.706Z,8.73
2023-02-05T13:15:25.359Z,8.50
2023-02-05T13:18:01.649Z,11.90
2023-02-05T13:20:55.722Z,9.17
2023-02-05T13:23:41.981Z,11.50
2023-02-05T13:26:32.385Z,10.63
2023-02-05T13:29:30.172Z,12.27
2023-02-05T13:32:14.676Z,10.63
2023-02-05T13:34:43.726Z,8.93
2023-02-05T13:37:34.577Z,8.57
2023-02-05T13:40:27.257Z,7.90
2023-02-05T13:43:26.074Z,8.77
2023-02-05T13:46:40.489Z,8.13
2023-02-05T13:49:54.159Z,9.80
2023-02-05T13:52:59.174Z,7.93
2023-02-05T13:55:52.438Z,9.47
2023-02-05T13:58:24.275Z,8.27
2023-02-05T14:01:01.429Z,10.73
2023-02-05T14:03:39.665Z,9.60
2023-02-05T14:06:21.734Z,8.07
2023-02-05T14:08:59.269Z,10.70
2023-02-05T14:11:27.489Z,12.57
2023-02-05T14:14:31.747Z,10.10
2023-02-05T14:17:01.610Z,8.90
2023-02-05T14:19:56.946Z,9.60
2023-02-05T14:22:39.053Z,9.50
2023-02-05T14:26:01.985Z,9.07
2023-02-05T14:28:49.585Z,10.90
2023-02-05T14:31:57.359Z,9.53
2023-02-05T14:34:50.177Z,9.50
2023-02-05T14:37:34.663Z,11.73
2023-02-05T14:40:32.932Z,11.13
2023-02-05T14:43:10.451Z,8.17
2023-02-05T14:45:47.725Z,9.03
2023-02-05T14:48:26.311Z,9.53
2023-02-05T14:51:06.767Z,9.67
2023-02-05T14:53:38.037Z,9.97
2023-02-05T14:56:07.068Z,11.07
2023-02-05T14:58:39.748Z,9.97
2023-02-05T15:01:45.835Z,11.70
2023-02-05T15:04:49.482Z,12.83
2023-02-05T15:07:24.002Z,10.20
2023-02-05T15:09:58.617Z,11.37
2023-02-05T15:12:56.204Z,11.80
2023-02-05T15:15:35.196Z,13.37
2023-02-05T15:18:11.626Z,12.33
2023-02-05T15:20:41.896Z,13.13
2023-02-05T15:23:23.522Z,11.10
2023-02-05T15:26:00.279Z,7.87
2023-02-05T15:28:35.161Z,7.53
2023-02-05T15:31:10.568Z,10.13
2023-02-05T15:33:49.722Z,7.93
2023-02-05T15:36:28.365Z,7.07
2023-02-05T15:39:10.554Z,15.97
2023-02-05T15:41:43.467Z,14.50
2023-02-05T15:44:24.889Z,8.13
2023-02-05T15:46:54.725Z,8.03
2023-02-05T15:49:39.104Z,9.03
2023-02-05T15:52:08.134Z,8.00
2023-02-05T15:54:38.062Z,8.30
2023-02-05T15:57:09.089Z,8.23
2023-02-05T15:59:37.396Z,8.20
2023-02-05T16:02:15.007Z,7.27
2023-02-05T16:04:44.608Z,7.27
2023-02-05T16:07:23.371Z,8.37
2023-02-05T16:09:56.111Z,8.10
2023-02-05T16:12:24.834Z,6.80
2023-02-05T16:15:05.103Z,10.23
2023-02-05T16:17:39.544Z,7.33
2023-02-05T16:20:22.168Z,10.50
2023-02-05T16:22:55.334Z,7.20
2023-02-05T16:25:38.507Z,7.97
2023-02-05T16:28:14.786Z,7.40
2023-02-05T16:30:49.532Z,6.87
2023-02-05T16:33:34.690Z,10.03
2023-02-05T16:36:07.845Z,8.67
2023-02-05T16:38:37.281Z,10.03
2023-02-05T16:41:23.107Z,12.37
2023-02-05T16:43:53.775Z,12.17
2023-02-05T16:46:30.583Z,12.87
2023-02-05T16:49:01.152Z,13.30
2023-02-05T16:51:38.463Z,15.17
2023-02-05T16:54:37.967Z,15.57
2023-02-05T16:57:11.461Z,15.07
2023-02-05T16:59:51.384Z,13.50
2023-02-05T17:02:29.348Z,14.07
2023-02-05T17:05:22.585Z,12.27
2023-02-05T17:07:56.897Z,11.97
2023-02-05T17:10:25.828Z,12.40
2023-02-05T17:13:01.051Z,12.23
2023-02-05T17:15:40.506Z,12.60
2023-02-05T17:18:22.815Z,10.23
2023-02-05T17:20:51.372Z,11.47
2023-02-05T17:23:20.851Z,12.97
2023-02-05T17:25:55.603Z,13.60
2023-02-05T17:28:27.471Z,12.37
2023-02-05T17:30:58.739Z,11.73
2023-02-05T17:33:29.493Z,11.13
2023-02-05T17:35:57.728Z,12.90
2023-02-05T17:38:27.240Z,12.17
2023-02-05T17:41:15.450Z,12.73
2023-02-05T17:43:43.658Z,14.47
2023-02-05T17:46:14.831Z,11.10
2023-02-05T17:48:44.682Z,12.53
2023-02-05T17:51:21.809Z,13.43
2023-02-05T17:53:52.399Z,12.97
2023-02-05T17:56:21.985Z,12.83
2023-02-05T17:58:52.111Z,13.27
2023-02-05T18:01:21.168Z,14.77
2023-02-05T18:03:49.487Z,14.20
2023-02-05T18:06:20.192Z,14.47
2023-02-05T18:08:48.384Z,13.40
2023-02-05T18:11:17.890Z,13.40
2023-02-05T18:13:46.096Z,15.60
2023-02-05T18:16:14.358Z,24.30
2023-02-05T18:18:43.057Z,16.77
2023-02-05T18:21:11.270Z,15.03
2023-02-05T18:23:39.520Z,14.80
2023-02-05T18:26:11.122Z,16.63
2023-02-05T18:28:41.104Z,14.53
2023-02-05T18:31:10.500Z,16.77
2023-02-05T18:33:39.095Z,15.47
2023-02-05T18:36:11.020Z,16.77
2023-02-05T18:38:40.165Z,15.50
2023-02-05T18:41:10.394Z,15.10
2023-02-05T18:43:40.630Z,16.40
2023-02-05T18:46:11.605Z,14.73
2023-02-05T18:48:41.043Z,16.87
2023-02-05T18:51:11.648Z,15.83
2023-02-05T18:53:43.207Z,14.73
2023-02-05T18:56:16.540Z,14.53
2023-02-05T18:58:52.256Z,12.40
2023-02-05T19:01:29.178Z,14.13
2023-02-05T19:04:10.096Z,15.73
2023-02-05T19:06:38.468Z,15.33
2023-02-05T19:09:06.666Z,16.57
2023-02-05T19:11:40.815Z,17.10
2023-02-05T19:14:14.409Z,18.43
2023-02-05T19:16:43.439Z,18.67
2023-02-05T19:19:14.271Z,19.00
2023-02-05T19:21:44.847Z,21.03
2023-02-05T19:24:14.794Z,19.63
2023-02-05T19:26:44.701Z,21.10
2023-02-05T19:29:17.491Z,21.73
2023-02-05T19:31:46.661Z,21.30
2023-02-05T19:34:15.150Z,22.27
2023-02-05T19:36:44.701Z,18.10
2023-02-05T19:39:14.352Z,20.57
2023-02-05T19:41:45.225Z,20.23
2023-02-05T19:44:15.088Z,19.90
2023-02-05T19:46:45.209Z,22.03
2023-02-05T19:49:15.882Z,19.73
2023-02-05T19:51:46.728Z,20.83
2023-02-05T19:54:15.946Z,20.97
2023-02-05T19:56:45.186Z,21.30
2023-02-05T19:59:16.691Z,21.20
2023-02-05T20:01:45.596Z,20.60
2023-02-05T20:04:17.524Z,20.83
2023-02-05T20:06:47.226Z,21.17
2023-02-05T20:09:18.313Z,22.30
2023-02-05T20:11:48.965Z,22.23
2023-02-05T20:14:18.766Z,25.13
2023-02-05T20:16:48.190Z,21.40
2023-02-05T20:19:18.144Z,19.83
2023-02-05T20:21:47.713Z,17.43
2023-02-05T20:24:17.352Z,18.07
2023-02-05T20:26:48.274Z,19.80
2023-02-05T20:29:35.770Z,16.77
2023-02-05T20:32:04.395Z,19.87
2023-02-05T20:34:36.075Z,18.93
2023-02-05T20:37:06.912Z,19.53
2023-02-05T20:39:39.624Z,20.37
2023-02-05T20:42:07.958Z,18.63
2023-02-05T20:44:38.131Z,20.90
2023-02-05T20:47:08.181Z,19.83
2023-02-05T20:49:38.125Z,16.10
2023-02-05T20:52:06.847Z,19.23
2023-02-05T20:54:37.233Z,21.23
2023-02-05T20:57:05.547Z,19.63
2023-02-05T20:59:34.501Z,19.60
2023-02-05T21:02:28.779Z,20.20
2023-02-05T21:04:57.410Z,20.33
2023-02-05T21:07:29.576Z,20.67
2023-02-05T21:09:59.230Z,22.17
2023-02-05T21:12:31.148Z,20.50
2023-02-05T21:14:59.500Z,20.47
2023-02-05T21:17:29.085Z,22.10
2023-02-05T21:19:57.315Z,21.30
2023-02-05T21:22:25.602Z,21.63
2023-02-05T21:24:53.798Z,23.30
2023-02-05T21:27:24.166Z,21.53
2023-02-05T21:29:52.514Z,24.77
2023-02-05T21:32:20.642Z,22.37
2023-02-05T21:34:50.266Z,22.07
2023-02-05T21:37:18.686Z,23.90
2023-02-05T21:39:46.874Z,21.53
2023-02-05T21:42:15.138Z,20.47
2023-02-05T21:44:44.198Z,23.80
2023-02-05T21:47:12.369Z,25.63
2023-02-05T21:49:40.561Z,25.97
2023-02-05T21:52:10.186Z,24.10
2023-02-05T21:54:38.409Z,25.03
2023-02-05T21:57:08.328Z,21.50
2023-02-05T21:59:36.556Z,24.93
2023-02-05T22:02:04.765Z,21.23
2023-02-05T22:04:32.950Z,20.57
2023-02-05T22:07:01.133Z,23.33
2023-02-05T22:09:30.688Z,22.03
2023-02-05T22:12:03.603Z,21.50
2023-02-05T22:14:31.851Z,19.70
2023-02-05T22:17:00.370Z,20.70
2023-02-05T22:19:29.364Z,19.90
2023-02-05T22:21:57.575Z,17.07
2023-02-05T22:24:25.804Z,17.63
2023-02-05T22:26:55.488Z,16.03
2023-02-05T22:29:23.668Z,14.97
2023-02-05T22:31:54.093Z,14.77
2023-02-05T22:34:23.886Z,13.90
2023-02-05T22:36:52.091Z,15.63
2023-02-05T22:39:20.264Z,12.90
2023-02-05T22:41:48.480Z,16.00
2023-02-05T22:44:18.036Z,15.27
2023-02-05T22:46:46.315Z,13.93
2023-02-05T22:49:16.143Z,13.03
2023-02-05T22:51:45.117Z,17.20
2023-02-05T22:54:15.911Z,14.57
2023-02-05T22:56:44.449Z,14.63
2023-02-05T22:59:13.493Z,16.63
2023-02-05T23:01:43.080Z,13.63
2023-02-05T23:04:20.118Z,14.83
2023-02-05T23:06:48.731Z,13.63
2023-02-05T23:09:19.254Z,14.10
2023-02-05T23:11:47.600Z,14.50
2023-02-05T23:14:18.152Z,13.50
2023-02-05T23:16:49.280Z,12.97
2023-02-05T23:19:20.576Z,15.33
2023-02-05T23:21:49.766Z,13.13
2023-02-05T23:24:19.203Z,13.83
2023-02-05T23:26:50.829Z,13.60
2023-02-05T23:29:19.660Z,15.03
2023-02-05T23:31:49.448Z,13.30
2023-02-05T23:34:17.664Z,12.43
2023-02-05T23:36:46.066Z,13.87
2023-02-05T23:39:15.369Z,12.03
2023-02-05T23:41:43.551Z,13.83
2023-02-05T23:44:15.700Z,13.13
2023-02-05T23:46:45.752Z,13.97
2023-02-05T23:49:16.632Z,15.00
2023-02-05T23:51:44.981Z,13.83
2023-02-05T23:54:14.044Z,14.60
2023-02-05T23:56:42.764Z,12.90
2023-02-05T23:59:13.590Z,13.63
